Flight Track Log - Related Links

Times and Time Zones

All times are in EDT time to prevent confusion due to time zone crossing. See the N800JH flight status page for this flight to view local times or setup timezone preferences in your user account.

Time Position Orientation Groundspeed Altitude Reporting Facility
EDT Latitude Longitude Course Direction KTS MPH feet Rate Location/Type
Fri 08:27:15 AM 40.8333 -74.0833 255° West 205 236 1,000  Level New York TRACON
Fri 08:28:20 AM 40.8167 -74.1667 255° West 198 228 1,900 2,112 Climbing New York TRACON
Fri 08:29:20 AM 40.8167 -74.2500 270° West 252 290 5,400 3,850 Climbing New York TRACON
Fri 08:30:20 AM 40.8167 -74.3500 270° West 270 311 9,600 2,350 Climbing New York TRACON
Fri 08:31:20 AM 40.8167 -74.4500 270° West 315 362 10,100 1,736 Climbing New York TRACON
Fri 08:33:37 AM 40.9206 -74.5908 314° West 277 319 15,300 2,041 Climbing New York Center
Fri 08:34:34 AM 40.9786 -74.6683 315° West 276 318 16,700 1,138 Climbing New York Center
Fri 08:35:33 AM 40.9642 -74.7858 261° West 291 335 17,500 2,000 Climbing New York Center
Fri 08:36:34 AM 40.9447 -74.9300 260° West 337 388 20,700 2,852 Climbing New York Center
Fri 08:37:35 AM 40.9167 -75.0686 255° West 373 429 23,300 2,311 Climbing New York Center
Fri 08:38:36 AM 40.8842 -75.2175 254° West 403 464 25,400 2,542 Climbing New York Center
Fri 08:39:33 AM 40.8758 -75.3814 266° West 431 496 28,300 2,923 Climbing New York Center
Fri 08:40:33 AM 40.8800 -75.5408 272° West 442 509 31,100 2,579 Climbing New York Center
Fri 08:41:34 AM 40.8817 -75.7031 271° West 442 509 33,500 2,656 Climbing New York Center
Fri 08:42:35 AM 40.8853 -75.8625 272° West 442 509 36,500 2,380 Climbing New York Center
Fri 08:43:35 AM 40.8886 -76.0247 272° West 442 509 38,300 1,636 Climbing New York Center
Fri 08:44:36 AM 40.8906 -76.1675 271° West 442 509 39,800 1,815 Climbing New York Center
Fri 08:45:34 AM 40.8933 -76.3325 271° West 442 509 41,900 1,714 Climbing New York Center
Fri 08:46:35 AM 40.8964 -76.4867 272° West 442 509 43,200 1,289 Climbing New York Center
Fri 08:47:35 AM 40.8989 -76.6461 271° West 442 509 44,500 1,050 Climbing New York Center
Fri 08:48:35 AM 40.9017 -76.7972 271° West 437 503 45,300 706 Climbing New York Center
Fri 08:49:34 AM 40.9042 -76.9514 271° West 431 496 45,900 550 Climbing New York Center
Fri 08:50:35 AM 40.9081 -77.1139 272° West 431 496 46,400 496 Climbing New York Center
Fri 08:51:35 AM 40.9078 -77.2758 270° West 438 504 46,900 300 Climbing New York Center
Fri 08:52:35 AM 40.9114 -77.4353 272° West 443 510 47,000 39 Climbing New York Center
Fri 08:54:08 AM 40.9131 -77.7144 271° West 450 518 47,000  Level Cleveland Center
Fri 08:55:08 AM 40.9150 -77.8875 271° West 456 525 47,000  Level Cleveland Center
Fri 08:56:08 AM 40.9231 -78.0575 274° West 462 532 47,000  Level Cleveland Center
Fri 08:57:08 AM 40.9414 -78.2247 278° West 462 532 47,000  Level Cleveland Center
Fri 08:58:08 AM 40.9678 -78.3969 282° West 468 539 47,000  Level Cleveland Center
Fri 08:59:08 AM 40.9894 -78.5667 280° West 468 539 47,000  Level Cleveland Center
Fri 09:00:08 AM 41.0111 -78.7367 280° West 468 539 47,000  Level Cleveland Center
Fri 09:01:08 AM 41.0283 -78.9069 278° West 468 539 47,000  Level Cleveland Center
Fri 09:02:08 AM 41.0475 -79.0800 278° West 468 539 47,000  Level Cleveland Center
Fri 09:03:08 AM 41.0683 -79.2475 279° West 473 544 47,000  Level Cleveland Center
Fri 09:04:08 AM 41.0869 -79.4150 278° West 473 544 47,000  Level Cleveland Center
Fri 09:05:08 AM 41.1031 -79.5856 277° West 468 539 47,000  Level Cleveland Center
Fri 09:06:08 AM 41.1231 -79.7561 279° West 468 539 47,000  Level Cleveland Center
Fri 09:07:08 AM 41.1411 -79.9297 278° West 468 539 47,000  Level Cleveland Center
Fri 09:08:08 AM 41.1628 -80.0950 280° West 468 539 47,000  Level Cleveland Center
Fri 09:09:08 AM 41.1778 -80.2658 277° West 468 539 47,000  Level Cleveland Center
Fri 09:10:08 AM 41.1947 -80.4397 277° West 468 539 47,000  Level Cleveland Center
Fri 09:11:08 AM 41.2094 -80.6108 277° West 468 539 47,000  Level Cleveland Center
Fri 09:12:08 AM 41.2281 -80.7792 278° West 468 539 47,000  Level Cleveland Center
Fri 09:13:08 AM 41.2444 -80.9531 277° West 468 539 47,000  Level Cleveland Center
Fri 09:14:08 AM 41.2603 -81.1217 277° West 462 532 47,000  Level Cleveland Center
Fri 09:15:08 AM 41.2781 -81.2961 278° West 474 545 47,000  Level Cleveland Center
Fri 09:16:08 AM 41.2958 -81.4647 278° West 469 540 47,000  Level Cleveland Center
Fri 09:17:08 AM 41.3131 -81.6364 278° West 476 548 47,000  Level Cleveland Center
Fri 09:18:08 AM 41.3281 -81.8081 277° West 476 548 47,000  Level Cleveland Center
Fri 09:19:08 AM 41.3428 -81.9769 277° West 476 548 47,000  Level Cleveland Center
Fri 09:20:08 AM 41.3550 -82.1572 275° West 476 548 47,000  Level Cleveland Center
Fri 09:21:08 AM 41.3672 -82.3289 275° West 482 555 47,000  Level Cleveland Center
Fri 09:22:08 AM 41.3769 -82.4981 274° West 467 537 47,000  Level Cleveland Center
Fri 09:23:08 AM 41.3864 -82.6672 274° West 467 537 47,000  Level Cleveland Center
Fri 09:24:08 AM 41.3936 -82.8389 273° West 467 537 47,000  Level Cleveland Center
Fri 09:25:08 AM 41.4031 -82.9917 275° West 462 532 47,000  Level Cleveland Center
Fri 09:26:08 AM 41.4117 -83.1636 274° West 467 537 47,000  Level Cleveland Center
Fri 09:27:08 AM 41.4183 -83.3328 273° West 462 532 47,000  Level Cleveland Center
Fri 09:28:08 AM 41.4264 -83.5047 274° West 467 537 47,000  Level Cleveland Center
Fri 09:29:08 AM 41.4367 -83.6772 275° West 467 537 47,000  Level Cleveland Center
Fri 09:30:08 AM 41.4444 -83.8464 274° West 467 537 47,000  Level Cleveland Center
Fri 09:31:08 AM 41.4519 -84.0186 273° West 461 531 47,000  Level Cleveland Center
Fri 09:32:37 AM 41.4661 -84.2756 274° West 465 535 47,000  Level Chicago Center
Fri 09:33:39 AM 41.4739 -84.4483 273° West 468 539 47,000  Level Chicago Center
Fri 09:34:41 AM 41.4792 -84.6203 272° West 466 536 47,000  Level Chicago Center
Fri 09:35:43 AM 41.4856 -84.7911 273° West 463 533 47,000  Level Chicago Center
Fri 09:36:45 AM 41.4933 -84.9983 273° West 466 536 47,000  Level Chicago Center
Fri 09:37:47 AM 41.4986 -85.1694 272° West 462 532 47,000  Level Chicago Center
Fri 09:38:49 AM 41.5042 -85.3308 273° West 466 536 47,000  Level Chicago Center
Fri 09:39:51 AM 41.5114 -85.5011 273° West 466 536 47,000  Level Chicago Center
Fri 09:40:53 AM 41.5144 -85.7011 271° West 475 547 47,000  Level Chicago Center
Fri 09:41:55 AM 41.5197 -85.8725 272° West 472 543 47,000  Level Chicago Center
Fri 09:42:57 AM 41.5247 -86.0436 272° West 464 534 47,000  Level Chicago Center
Fri 09:43:59 AM 41.5283 -86.2161 272° West 467 537 47,000  Level Chicago Center
Fri 09:45:01 AM 41.5325 -86.3897 272° West 471 542 47,000  Level Chicago Center
Fri 09:46:03 AM 41.5339 -86.5903 271° West 456 525 47,000  Level Chicago Center
Fri 09:47:05 AM 41.5356 -86.7614 271° West 458 527 47,000  Level Chicago Center
Fri 09:48:07 AM 41.5386 -86.9289 271° West 454 522 47,000  Level Chicago Center
Fri 09:49:09 AM 41.5400 -87.0972 271° West 457 526 47,000  Level Chicago Center
Fri 09:50:11 AM 41.5425 -87.2667 271° West 458 527 47,000  Level Chicago Center
Fri 09:51:13 AM 41.5439 -87.4689 271° West 459 528 47,000  Level Chicago Center
Fri 09:52:15 AM 41.5447 -87.6369 270° West 456 525 47,000  Level Chicago Center
Fri 09:53:17 AM 41.5461 -87.8017 271° West 450 518 47,000  Level Chicago Center
Fri 09:54:19 AM 41.5481 -87.9658 271° West 452 520 47,000  Level Chicago Center
Fri 09:55:21 AM 41.5481 -88.1658 270° West 464 534 47,000  Level Chicago Center
Fri 09:56:23 AM 41.5464 -88.3336 269° West 463 533 47,000  Level Chicago Center
Fri 09:57:25 AM 41.5475 -88.4997 271° West 455 524 47,000  Level Chicago Center
Fri 09:58:27 AM 41.5475 -88.6647 270° West 452 520 47,000  Level Chicago Center
Fri 09:59:29 AM 41.5481 -88.8656 270° West 454 522 47,000  Level Chicago Center
Fri 10:00:31 AM 41.5478 -89.0322 270° West 454 522 47,000  Level Chicago Center
Fri 10:01:33 AM 41.5492 -89.1989 271° West 452 520 47,000  Level Chicago Center
Fri 10:02:35 AM 41.5486 -89.3675 270° West 457 526 47,000  Level Chicago Center
Fri 10:03:37 AM 41.5486 -89.5533 270° West 455 524 47,000  Level Chicago Center
Fri 10:04:39 AM 41.5469 -89.7222 269° West 457 526 47,000  Level Chicago Center
Fri 10:05:41 AM 41.5458 -89.8903 270° West 456 525 47,000  Level Chicago Center
Fri 10:06:43 AM 41.5450 -90.0553 270° West 450 518 47,000  Level Chicago Center
Fri 10:07:45 AM 41.5442 -90.2231 270° West 453 521 47,000  Level Chicago Center
Fri 10:08:48 AM 41.5400 -90.4264 268° West 457 526 47,000  Level Chicago Center
Fri 10:09:50 AM 41.5381 -90.5936 269° West 453 521 47,000  Level Chicago Center
Fri 10:10:52 AM 41.5347 -90.7692 269° West 451 519 47,000  Level Chicago Center
Fri 10:11:54 AM 41.5325 -90.9353 269° West 451 519 47,000  Level Chicago Center
Fri 10:12:56 AM 41.5297 -91.1022 269° West 452 520 47,000  Level Chicago Center
Fri 10:13:58 AM 41.5267 -91.2689 269° West 452 520 47,000  Level Chicago Center
Fri 10:15:00 AM 41.5219 -91.4375 268° West 455 524 47,000  Level Chicago Center
Fri 10:16:02 AM 41.5158 -91.6378 268° West 454 522 47,000  Level Chicago Center
Fri 10:17:04 AM 41.5011 -91.8036 263° West 454 522 47,000  Level Chicago Center
Fri 10:18:06 AM 41.4856 -91.9708 263° West 457 526 47,000  Level Chicago Center
Fri 10:19:08 AM 41.4692 -92.1356 262° West 453 521 47,000  Level Chicago Center
Fri 10:20:11 AM 41.4536 -92.3017 263° West 454 522 47,000  Level Chicago Center
Fri 10:21:13 AM 41.4358 -92.4733 262° West 455 524 47,000  Level Chicago Center
Fri 10:22:15 AM 41.4150 -92.6706 262° West 454 522 47,000  Level Chicago Center
Fri 10:23:17 AM 41.3997 -92.8331 263° West 450 518 47,000  Level Chicago Center
Fri 10:24:19 AM 41.3814 -92.9950 261° West 446 513 47,000  Level Chicago Center
Fri 10:25:21 AM 41.3636 -93.1603 262° West 452 520 47,000  Level Chicago Center
Fri 10:26:23 AM 41.3428 -93.3572 262° West 454 522 47,000  Level Chicago Center
Fri 10:27:25 AM 41.3239 -93.5219 261° West 455 524 47,000  Level Chicago Center
Fri 10:28:27 AM 41.3061 -93.6861 262° West 455 524 47,000  Level Chicago Center
Fri 10:29:29 AM 41.2881 -93.8508 262° West 455 524 47,000  Level Chicago Center
Fri 10:30:31 AM 41.2697 -94.0156 262° West 455 524 47,000  Level Chicago Center
Fri 10:31:33 AM 41.2467 -94.2125 261° West 453 521 47,000  Level Chicago Center
Fri 10:32:35 AM 41.2283 -94.3786 262° West 456 525 47,000  Level Chicago Center
Fri 10:33:59 AM 41.2008 -94.6222 262° West 462 532 47,000  Level Minneapolis Center
Fri 10:35:01 AM 41.1792 -94.7881 260° West 459 528 47,000  Level Minneapolis Center
Fri 10:36:03 AM 41.1592 -94.9550 261° West 458 527 47,000 242 Level Minneapolis Center
Fri 10:37:05 AM 41.1381 -95.1228 261° West 460 529 47,500 484 Climbing Minneapolis Center
Fri 10:38:07 AM 41.1158 -95.2908 260° West 461 531 48,000 435 Climbing Minneapolis Center
Fri 10:39:09 AM 41.0942 -95.4575 260° West 459 528 48,400 484 Climbing Minneapolis Center
Fri 10:40:11 AM 41.0728 -95.6222 260° West 453 521 49,000 290 Climbing Minneapolis Center
Fri 10:41:13 AM 41.0467 -95.8167 260° West 445 512 49,000  Level Minneapolis Center
Fri 10:42:15 AM 41.0247 -95.9806 260° West 447 514 49,000  Level Minneapolis Center
Fri 10:43:17 AM 41.0078 -96.1117 260° West 447 514 49,000  Level Minneapolis Center
Fri 10:44:19 AM 40.9836 -96.3053 261° West 444 511 49,000  Level Minneapolis Center
Fri 10:45:21 AM 40.9608 -96.4672 260° West 445 512 49,000  Level Minneapolis Center
Fri 10:46:23 AM 40.9383 -96.6300 260° West 445 512 49,000  Level Minneapolis Center
Fri 10:47:25 AM 40.9181 -96.7914 261° West 447 514 49,000  Level Minneapolis Center
Fri 10:48:28 AM 40.9017 -96.9550 263° West 448 516 49,000  Level Minneapolis Center
Fri 10:49:30 AM 40.8831 -97.1508 263° West 447 514 49,000  Level Minneapolis Center
Fri 10:50:32 AM 40.8681 -97.3139 263° West 448 516 49,000  Level Minneapolis Center
Fri 10:51:46 AM 40.8508 -97.4783 262° West 448 516 49,000  Level Minneapolis Center
Fri 10:52:48 AM 40.8314 -97.6742 263° West 448 516 49,000  Level Minneapolis Center
Fri 10:53:50 AM 40.8150 -97.8378 263° West 448 516 49,000  Level Minneapolis Center
Fri 10:54:52 AM 40.7972 -98.0003 262° West 447 514 49,000  Level Minneapolis Center
Fri 10:55:54 AM 40.7767 -98.1964 262° West 447 514 49,000  Level Minneapolis Center
Fri 10:56:56 AM 40.7589 -98.3586 262° West 446 513 49,000  Level Minneapolis Center
Fri 10:57:59 AM 40.7414 -98.5222 262° West 447 514 49,000  Level Minneapolis Center
Fri 10:59:01 AM 40.7231 -98.6856 262° West 446 513 49,000  Level Minneapolis Center
Fri 11:00:03 AM 40.7044 -98.8483 261° West 446 513 49,000  Level Minneapolis Center
Fri 11:01:05 AM 40.6864 -99.0114 262° West 446 513 49,000  Level Minneapolis Center
Fri 11:02:07 AM 40.6681 -99.1739 262° West 446 513 49,000  Level Minneapolis Center
Fri 11:02:45 AM 40.6581 -99.2722 262° West 449 517 49,000  Level Denver Center
Fri 11:03:47 AM 40.6342 -99.4669 261° West 449 517 49,000  Level Denver Center
Fri 11:04:49 AM 40.6156 -99.6314 262° West 452 520 49,000  Level Denver Center
Fri 11:05:51 AM 40.5956 -99.7944 261° West 451 519 49,000  Level Denver Center
Fri 11:06:53 AM 40.5769 -99.9508 261° West 455 524 49,000  Level Denver Center
Fri 11:07:55 AM 40.5539 -100.1319 261° West 449 517 49,000  Level Denver Center
Fri 11:08:57 AM 40.5350 -100.2878 261° West 449 517 49,000  Level Denver Center
Fri 11:09:59 AM 40.5106 -100.4686 260° West 448 516 49,000  Level Denver Center
Fri 11:11:01 AM 40.4900 -100.6256 260° West 451 519 49,000  Level Denver Center
Fri 11:12:03 AM 40.4675 -100.8081 261° West 449 517 49,000  Level Denver Center
Fri 11:13:05 AM 40.4475 -100.9661 261° West 455 524 49,000  Level Denver Center
Fri 11:14:07 AM 40.4314 -101.1494 263° West 452 520 49,000  Level Denver Center
Fri 11:15:10 AM 40.4169 -101.3058 263° West 451 519 49,000  Level Denver Center
Fri 11:16:12 AM 40.4014 -101.4617 263° West 450 518 49,000  Level Denver Center
Fri 11:17:14 AM 40.3839 -101.6450 263° West 453 521 49,000  Level Denver Center
Fri 11:18:16 AM 40.3689 -101.8028 263° West 455 524 49,000  Level Denver Center
Fri 11:19:18 AM 40.3347 -101.9794 256° West 454 522 49,000  Level Denver Center
Fri 11:20:20 AM 40.2997 -102.1297 253° West 454 522 49,000  Level Denver Center
Fri 11:21:22 AM 40.2753 -102.3089 260° West 447 514 49,000  Level Denver Center
Fri 11:22:24 AM 40.2544 -102.4619 260° West 448 516 49,000  Level Denver Center
Fri 11:23:26 AM 40.2292 -102.6419 260° West 449 517 49,000  Level Denver Center
Fri 11:24:28 AM 40.2094 -102.7906 260° West 454 522 49,000  Level Denver Center
Fri 11:25:30 AM 40.1875 -102.9514 260° West 451 519 49,000  Level Denver Center
Fri 11:26:32 AM 40.1603 -103.1450 260° West 453 521 49,000  Level Denver Center
Fri 11:27:34 AM 40.1458 -103.3067 263° West 449 517 49,000  Level Denver Center
Fri 11:28:36 AM 40.1347 -103.4700 265° West 453 521 49,000  Level Denver Center
Fri 11:29:38 AM 40.1228 -103.6342 265° West 455 524 49,000 -96 Level Denver Center
Fri 11:30:41 AM 40.1114 -103.8003 265° West 469 540 48,800 -1,056 Descending Denver Center
Fri 11:31:43 AM 40.0994 -103.9642 265° West 453 521 46,800 -2,226 Descending Denver Center
Fri 11:32:45 AM 40.0842 -104.1550 264° West 441 507 44,200 -2,274 Descending Denver Center
Fri 11:33:47 AM 40.0722 -104.3144 264° West 445 512 42,100 -2,032 Descending Denver Center
Fri 11:34:49 AM 40.0603 -104.4719 264° West 441 507 40,000 -2,032 Descending Denver Center
Fri 11:35:51 AM 40.0483 -104.6317 264° West 447 514 37,900 -2,226 Descending Denver Center
Fri 11:36:53 AM 40.0356 -104.8253 265° West 461 531 35,400 -1,887 Descending Denver Center
Fri 11:37:55 AM 40.0331 -104.9897 269° West 459 528 34,000 -1,403 Descending Denver Center
Fri 11:38:57 AM 40.0294 -105.1544 268° West 460 529 32,500 -1,935 Descending Denver Center
Fri 11:39:59 AM 40.0272 -105.3192 269° West 456 525 30,000 -2,323 Descending Denver Center
Fri 11:41:01 AM 40.0114 -105.4836 263° West 451 519 27,700 -2,323 Descending Denver Center
Fri 11:42:03 AM 39.9728 -105.6711 255° West 442 509 25,200 -2,177 Descending Denver Center
Fri 11:43:05 AM 39.9403 -105.8222 254° West 432 497 23,200 -1,935 Descending Denver Center
Fri 11:44:07 AM 39.9117 -105.9581 255° West 397 457 21,200 -1,839 Descending Denver Center
Fri 11:45:09 AM 39.8842 -106.0811 254° West 359 413 19,400 -1,680 Descending Denver Center
Fri 11:46:12 AM 39.8617 -106.1961 256° West 342 394 17,700 -1,392 Descending Denver Center
Fri 11:47:14 AM 39.8358 -106.3114 254° West 334 384 16,500 -823 Descending Denver Center
Fri 11:48:16 AM 39.8092 -106.4378 255° West 301 346 16,000 -1,065 Descending Denver Center
Fri 11:49:18 AM 39.7844 -106.5267 250° West 272 313 14,300 -1,258 Descending Denver Center
Fri 11:50:20 AM 39.7158 -106.5633 202° Southwest 261 300 13,400 -1,113 Descending Denver Center
Fri 11:51:22 AM 39.6856 -106.6261 238° Southwest 232 267 12,000 -1,403 Descending Denver Center
Fri 11:52:24 AM 39.6739 -106.7044 259° West 192 221 10,500 -1,258 Descending Denver Center
Fri 11:53:26 AM 39.6664 -106.7556 259° West 155 178 9,400 -1,016 Descending Denver Center
Fri 11:54:28 AM 39.6564 -106.8050 255° West 145 167 8,400 -968 Descending Denver Center
Fri 11:55:30 AM 39.6483 -106.8533 258° West 141 162 7,400 -968 Descending Denver Center
Fri 11:57:00 AM 39.6333 -106.9000 North  Level FlightAware Approximate
Fri 12:04:00 PM 39.6427 -106.9159 North  Level Estimated
Fri 12:05:00 PM 39.6427 -106.9159 North  Level Estimated
Fri 12:06:00 PM 39.6427 -106.9159 North  Level Estimated
Fri 12:07:00 PM 39.6427 -106.9159 North  Level Estimated

Login

Don't have an account? Register now (free) for customized features, flight alerts, and more!